sensor_id;sensor_type;location;lat;lon;timestamp;temperature;humidity
66119;DHT22;52912;48.564;9.302;2023-06-22T00:00:07;21.32;88.11
66119;DHT22;52912;48.564;9.302;2023-06-22T00:02:34;21.13;88.30
66119;DHT22;52912;48.564;9.302;2023-06-22T00:05:00;21.16;88.22
66119;DHT22;52912;48.564;9.302;2023-06-22T00:07:25;21.19;88.36
66119;DHT22;52912;48.564;9.302;2023-06-22T00:09:51;21.20;88.33
66119;DHT22;52912;48.564;9.302;2023-06-22T00:12:16;21.34;87.80
66119;DHT22;52912;48.564;9.302;2023-06-22T00:14:41;21.34;87.70
66119;DHT22;52912;48.564;9.302;2023-06-22T00:17:07;21.26;87.89
66119;DHT22;52912;48.564;9.302;2023-06-22T00:19:34;21.13;88.41
66119;DHT22;52912;48.564;9.302;2023-06-22T00:21:59;20.85;89.19
66119;DHT22;52912;48.564;9.302;2023-06-22T00:24:25;20.78;89.67
66119;DHT22;52912;48.564;9.302;2023-06-22T00:26:50;20.79;89.45
66119;DHT22;52912;48.564;9.302;2023-06-22T00:29:16;20.91;89.14
66119;DHT22;52912;48.564;9.302;2023-06-22T00:31:41;20.88;89.37
66119;DHT22;52912;48.564;9.302;2023-06-22T00:34:07;20.99;89.04
66119;DHT22;52912;48.564;9.302;2023-06-22T00:36:34;20.95;89.16
66119;DHT22;52912;48.564;9.302;2023-06-22T00:39:00;20.77;89.66
66119;DHT22;52912;48.564;9.302;2023-06-22T00:41:25;20.70;89.83
66119;DHT22;52912;48.564;9.302;2023-06-22T00:43:51;20.84;89.78
66119;DHT22;52912;48.564;9.302;2023-06-22T00:46:17;20.74;89.77
66119;DHT22;52912;48.564;9.302;2023-06-22T00:48:42;20.63;90.09
66119;DHT22;52912;48.564;9.302;2023-06-22T00:51:07;20.65;90.13
66119;DHT22;52912;48.564;9.302;2023-06-22T00:53:34;20.64;90.19
66119;DHT22;52912;48.564;9.302;2023-06-22T00:56:00;20.74;89.70
66119;DHT22;52912;48.564;9.302;2023-06-22T00:58:26;20.81;89.49
66119;DHT22;52912;48.564;9.302;2023-06-22T01:00:52;20.78;89.44
66119;DHT22;52912;48.564;9.302;2023-06-22T01:03:17;20.64;90.06
66119;DHT22;52912;48.564;9.302;2023-06-22T01:05:43;20.48;90.62
66119;DHT22;52912;48.564;9.302;2023-06-22T01:08:16;20.55;90.19
66119;DHT22;52912;48.564;9.302;2023-06-22T01:10:50;20.57;90.25
66119;DHT22;52912;48.564;9.302;2023-06-22T01:13:23;20.60;90.51
66119;DHT22;52912;48.564;9.302;2023-06-22T01:15:55;20.71;90.25
66119;DHT22;52912;48.564;9.302;2023-06-22T01:18:22;20.79;89.51
66119;DHT22;52912;48.564;9.302;2023-06-22T01:20:50;20.60;90.31
66119;DHT22;52912;48.564;9.302;2023-06-22T01:23:23;20.51;90.48
66119;DHT22;52912;48.564;9.302;2023-06-22T01:25:59;20.36;91.07
66119;DHT22;52912;48.564;9.302;2023-06-22T01:28:40;20.29;91.21
66119;DHT22;52912;48.564;9.302;2023-06-22T01:31:08;20.13;91.90
66119;DHT22;52912;48.564;9.302;2023-06-22T01:33:36;20.20;91.85
66119;DHT22;52912;48.564;9.302;2023-06-22T01:36:02;20.25;91.45
66119;DHT22;52912;48.564;9.302;2023-06-22T01:38:29;20.26;91.39
66119;DHT22;52912;48.564;9.302;2023-06-22T01:40:57;20.32;91.30
66119;DHT22;52912;48.564;9.302;2023-06-22T01:43:24;20.37;90.80
66119;DHT22;52912;48.564;9.302;2023-06-22T01:45:52;20.37;90.60
66119;DHT22;52912;48.564;9.302;2023-06-22T01:48:18;20.19;91.29
66119;DHT22;52912;48.564;9.302;2023-06-22T01:50:45;20.15;91.48
66119;DHT22;52912;48.564;9.302;2023-06-22T01:53:10;20.08;91.79
66119;DHT22;52912;48.564;9.302;2023-06-22T01:55:36;20.05;92.10
66119;DHT22;52912;48.564;9.302;2023-06-22T01:58:01;19.81;92.83
66119;DHT22;52912;48.564;9.302;2023-06-22T02:00:28;19.85;92.89
66119;DHT22;52912;48.564;9.302;2023-06-22T02:03:01;19.77;93.07
66119;DHT22;52912;48.564;9.302;2023-06-22T02:05:33;19.70;93.47
66119;DHT22;52912;48.564;9.302;2023-06-22T02:08:04;19.67;93.60
66119;DHT22;52912;48.564;9.302;2023-06-22T02:10:32;19.68;93.45
66119;DHT22;52912;48.564;9.302;2023-06-22T02:13:00;19.78;93.13
66119;DHT22;52912;48.564;9.302;2023-06-22T02:15:26;19.72;93.25
66119;DHT22;52912;48.564;9.302;2023-06-22T02:17:51;19.70;93.47
66119;DHT22;52912;48.564;9.302;2023-06-22T02:20:18;19.67;93.56
66119;DHT22;52912;48.564;9.302;2023-06-22T02:22:44;19.70;93.47
66119;DHT22;52912;48.564;9.302;2023-06-22T02:25:09;19.74;93.13
66119;DHT22;52912;48.564;9.302;2023-06-22T02:27:35;19.70;92.98
66119;DHT22;52912;48.564;9.302;2023-06-22T02:30:00;19.77;92.50
66119;DHT22;52912;48.564;9.302;2023-06-22T02:32:26;19.74;92.85
66119;DHT22;52912;48.564;9.302;2023-06-22T02:34:52;19.67;93.06
66119;DHT22;52912;48.564;9.302;2023-06-22T02:37:19;19.54;93.31
66119;DHT22;52912;48.564;9.302;2023-06-22T02:39:44;19.54;93.02
66119;DHT22;52912;48.564;9.302;2023-06-22T02:42:10;19.58;92.93
66119;DHT22;52912;48.564;9.302;2023-06-22T02:44:35;19.65;92.97
66119;DHT22;52912;48.564;9.302;2023-06-22T02:47:01;19.63;92.86
66119;DHT22;52912;48.564;9.302;2023-06-22T02:49:26;19.53;93.08
66119;DHT22;52912;48.564;9.302;2023-06-22T02:51:52;19.20;94.22
66119;DHT22;52912;48.564;9.302;2023-06-22T02:54:19;19.18;94.47
66119;DHT22;52912;48.564;9.302;2023-06-22T02:56:44;19.27;94.39
66119;DHT22;52912;48.564;9.302;2023-06-22T02:59:10;19.23;94.27
66119;DHT22;52912;48.564;9.302;2023-06-22T03:01:35;19.20;94.61
66119;DHT22;52912;48.564;9.302;2023-06-22T03:04:01;19.26;94.55
66119;DHT22;52912;48.564;9.302;2023-06-22T03:06:26;19.26;94.59
66119;DHT22;52912;48.564;9.302;2023-06-22T03:08:52;19.18;94.62
66119;DHT22;52912;48.564;9.302;2023-06-22T03:11:18;19.23;94.51
66119;DHT22;52912;48.564;9.302;2023-06-22T03:13:44;19.20;94.51
66119;DHT22;52912;48.564;9.302;2023-06-22T03:16:10;19.22;94.61
66119;DHT22;52912;48.564;9.302;2023-06-22T03:18:35;19.19;94.67
66119;DHT22;52912;48.564;9.302;2023-06-22T03:21:00;19.20;94.61
66119;DHT22;52912;48.564;9.302;2023-06-22T03:23:26;19.20;94.58
66119;DHT22;52912;48.564;9.302;2023-06-22T03:25:51;19.26;94.53
66119;DHT22;52912;48.564;9.302;2023-06-22T03:28:18;19.31;94.34
66119;DHT22;52912;48.564;9.302;2023-06-22T03:30:44;19.31;94.29
66119;DHT22;52912;48.564;9.302;2023-06-22T03:33:09;19.38;94.10
66119;DHT22;52912;48.564;9.302;2023-06-22T03:35:34;19.37;94.12
66119;DHT22;52912;48.564;9.302;2023-06-22T03:38:00;19.33;94.16
66119;DHT22;52912;48.564;9.302;2023-06-22T03:40:25;19.29;94.22
66119;DHT22;52912;48.564;9.302;2023-06-22T03:42:51;19.37;94.15
66119;DHT22;52912;48.564;9.302;2023-06-22T03:45:18;19.41;94.00
66119;DHT22;52912;48.564;9.302;2023-06-22T03:47:43;19.41;94.04
66119;DHT22;52912;48.564;9.302;2023-06-22T03:50:09;19.40;94.07
66119;DHT22;52912;48.564;9.302;2023-06-22T03:52:35;19.33;94.13
66119;DHT22;52912;48.564;9.302;2023-06-22T03:55:00;19.47;93.85
66119;DHT22;52912;48.564;9.302;2023-06-22T03:57:25;19.49;93.70
66119;DHT22;52912;48.564;9.302;2023-06-22T03:59:51;19.38;93.97
66119;DHT22;52912;48.564;9.302;2023-06-22T04:02:18;19.29;94.24
66119;DHT22;52912;48.564;9.302;2023-06-22T04:04:43;19.29;94.36
66119;DHT22;52912;48.564;9.302;2023-06-22T04:07:09;19.18;94.65
66119;DHT22;52912;48.564;9.302;2023-06-22T04:09:34;19.22;94.55
66119;DHT22;52912;48.564;9.302;2023-06-22T04:12:01;19.27;94.46
66119;DHT22;52912;48.564;9.302;2023-06-22T04:14:26;19.27;94.40
66119;DHT22;52912;48.564;9.302;2023-06-22T04:16:51;19.37;94.28
66119;DHT22;52912;48.564;9.302;2023-06-22T04:19:18;19.34;94.28
66119;DHT22;52912;48.564;9.302;2023-06-22T04:21:44;19.26;94.48
66119;DHT22;52912;48.564;9.302;2023-06-22T04:24:09;19.29;94.55
66119;DHT22;52912;48.564;9.302;2023-06-22T04:26:35;19.33;94.53
66119;DHT22;52912;48.564;9.302;2023-06-22T04:29:00;19.34;94.39
66119;DHT22;52912;48.564;9.302;2023-06-22T04:31:26;19.29;94.40
66119;DHT22;52912;48.564;9.302;2023-06-22T04:33:51;19.36;94.42
66119;DHT22;52912;48.564;9.302;2023-06-22T04:36:18;19.41;94.15
66119;DHT22;52912;48.564;9.302;2023-06-22T04:38:43;19.41;94.14
66119;DHT22;52912;48.564;9.302;2023-06-22T04:41:09;19.53;93.91
66119;DHT22;52912;48.564;9.302;2023-06-22T04:43:34;19.64;93.56
66119;DHT22;52912;48.564;9.302;2023-06-22T04:45:59;19.79;93.14
66119;DHT22;52912;48.564;9.302;2023-06-22T04:48:25;19.68;93.22
66119;DHT22;52912;48.564;9.302;2023-06-22T04:50:50;19.67;93.26
66119;DHT22;52912;48.564;9.302;2023-06-22T04:53:17;19.88;92.76
66119;DHT22;52912;48.564;9.302;2023-06-22T04:55:43;19.81;92.90
66119;DHT22;52912;48.564;9.302;2023-06-22T04:58:08;19.82;92.74
66119;DHT22;52912;48.564;9.302;2023-06-22T05:00:33;19.92;92.83
66119;DHT22;52912;48.564;9.302;2023-06-22T05:02:59;19.93;92.75
66119;DHT22;52912;48.564;9.302;2023-06-22T05:05:24;20.15;92.24
66119;DHT22;52912;48.564;9.302;2023-06-22T05:07:51;20.22;91.88
66119;DHT22;52912;48.564;9.302;2023-06-22T05:10:18;20.36;91.46
66119;DHT22;52912;48.564;9.302;2023-06-22T05:12:45;20.55;91.01
66119;DHT22;52912;48.564;9.302;2023-06-22T05:15:11;20.43;91.17
66119;DHT22;52912;48.564;9.302;2023-06-22T05:17:37;20.37;91.58
66119;DHT22;52912;48.564;9.302;2023-06-22T05:20:03;20.63;91.07
66119;DHT22;52912;48.564;9.302;2023-06-22T05:22:28;20.70;90.85
66119;DHT22;52912;48.564;9.302;2023-06-22T05:24:54;20.81;90.33
66119;DHT22;52912;48.564;9.302;2023-06-22T05:27:20;20.98;89.73
66119;DHT22;52912;48.564;9.302;2023-06-22T05:29:46;21.18;89.30
66119;DHT22;52912;48.564;9.302;2023-06-22T05:32:11;21.09;89.20
66119;DHT22;52912;48.564;9.302;2023-06-22T05:34:37;21.13;89.28
66119;DHT22;52912;48.564;9.302;2023-06-22T05:37:03;21.03;89.66
66119;DHT22;52912;48.564;9.302;2023-06-22T05:39:28;21.20;88.94
66119;DHT22;52912;48.564;9.302;2023-06-22T05:41:54;21.12;88.80
66119;DHT22;52912;48.564;9.302;2023-06-22T05:44:20;20.95;89.68
66119;DHT22;52912;48.564;9.302;2023-06-22T05:46:46;21.22;89.31
66119;DHT22;52912;48.564;9.302;2023-06-22T05:49:12;21.30;88.67
66119;DHT22;52912;48.564;9.302;2023-06-22T05:51:37;21.16;88.98
66119;DHT22;52912;48.564;9.302;2023-06-22T05:54:03;21.46;88.67
66119;DHT22;52912;48.564;9.302;2023-06-22T05:56:28;21.44;88.45
66119;DHT22;52912;48.564;9.302;2023-06-22T05:58:54;21.53;88.31
66119;DHT22;52912;48.564;9.302;2023-06-22T06:01:21;21.73;87.77
66119;DHT22;52912;48.564;9.302;2023-06-22T06:03:46;21.92;87.58
66119;DHT22;52912;48.564;9.302;2023-06-22T06:06:12;21.99;87.14
66119;DHT22;52912;48.564;9.302;2023-06-22T06:08:37;22.28;86.28
66119;DHT22;52912;48.564;9.302;2023-06-22T06:11:03;22.46;85.99
66119;DHT22;52912;48.564;9.302;2023-06-22T06:13:28;22.56;85.67
66119;DHT22;52912;48.564;9.302;2023-06-22T06:15:54;22.47;85.92
66119;DHT22;52912;48.564;9.302;2023-06-22T06:18:20;22.58;84.95
66119;DHT22;52912;48.564;9.302;2023-06-22T06:20:46;22.58;84.66
66119;DHT22;52912;48.564;9.302;2023-06-22T06:23:12;22.64;85.23
66119;DHT22;52912;48.564;9.302;2023-06-22T06:25:37;22.74;84.53
66119;DHT22;52912;48.564;9.302;2023-06-22T06:28:03;22.90;83.87
66119;DHT22;52912;48.564;9.302;2023-06-22T06:30:29;23.05;83.93
66119;DHT22;52912;48.564;9.302;2023-06-22T06:32:54;23.12;83.33
66119;DHT22;52912;48.564;9.302;2023-06-22T06:35:21;23.13;84.86
66119;DHT22;52912;48.564;9.302;2023-06-22T06:37:49;23.36;83.84
66119;DHT22;52912;48.564;9.302;2023-06-22T06:40:16;23.42;83.32
66119;DHT22;52912;48.564;9.302;2023-06-22T06:42:43;23.67;82.98
66119;DHT22;52912;48.564;9.302;2023-06-22T06:45:09;23.68;83.03
66119;DHT22;52912;48.564;9.302;2023-06-22T06:47:35;23.95;81.14
66119;DHT22;52912;48.564;9.302;2023-06-22T06:50:00;24.05;82.25
66119;DHT22;52912;48.564;9.302;2023-06-22T06:52:27;24.19;81.69
66119;DHT22;52912;48.564;9.302;2023-06-22T06:54:53;24.23;80.95
66119;DHT22;52912;48.564;9.302;2023-06-22T06:57:18;24.20;81.64
66119;DHT22;52912;48.564;9.302;2023-06-22T06:59:44;24.44;81.20
66119;DHT22;52912;48.564;9.302;2023-06-22T07:02:09;24.72;80.03
66119;DHT22;52912;48.564;9.302;2023-06-22T07:04:35;24.59;80.41
66119;DHT22;52912;48.564;9.302;2023-06-22T07:07:01;24.78;80.07
66119;DHT22;52912;48.564;9.302;2023-06-22T07:09:28;24.75;79.41
66119;DHT22;52912;48.564;9.302;2023-06-22T07:11:54;25.01;79.58
66119;DHT22;52912;48.564;9.302;2023-06-22T07:14:19;25.16;78.04
66119;DHT22;52912;48.564;9.302;2023-06-22T07:16:45;25.14;78.19
66119;DHT22;52912;48.564;9.302;2023-06-22T07:19:11;25.42;78.24
66119;DHT22;52912;48.564;9.302;2023-06-22T07:21:37;25.49;77.35
66119;DHT22;52912;48.564;9.302;2023-06-22T07:24:02;25.51;77.16
66119;DHT22;52912;48.564;9.302;2023-06-22T07:26:29;25.42;77.14
66119;DHT22;52912;48.564;9.302;2023-06-22T07:28:55;25.70;76.95
66119;DHT22;52912;48.564;9.302;2023-06-22T07:31:20;25.60;77.21
66119;DHT22;52912;48.564;9.302;2023-06-22T07:33:46;25.71;77.30
66119;DHT22;52912;48.564;9.302;2023-06-22T07:36:11;25.80;76.09
66119;DHT22;52912;48.564;9.302;2023-06-22T07:38:36;25.81;75.94
66119;DHT22;52912;48.564;9.302;2023-06-22T07:41:02;25.74;75.97
66119;DHT22;52912;48.564;9.302;2023-06-22T07:43:29;25.82;75.85
66119;DHT22;52912;48.564;9.302;2023-06-22T07:45:54;25.99;75.89
66119;DHT22;52912;48.564;9.302;2023-06-22T07:48:20;26.21;75.56
66119;DHT22;52912;48.564;9.302;2023-06-22T07:50:45;26.49;74.97
66119;DHT22;52912;48.564;9.302;2023-06-22T07:53:11;26.51;74.44
66119;DHT22;52912;48.564;9.302;2023-06-22T07:55:36;26.77;74.86
66119;DHT22;52912;48.564;9.302;2023-06-22T07:58:02;26.84;73.30
66119;DHT22;52912;48.564;9.302;2023-06-22T08:00:29;27.12;73.22
66119;DHT22;52912;48.564;9.302;2023-06-22T08:02:54;27.25;72.43
66119;DHT22;52912;48.564;9.302;2023-06-22T08:05:20;27.19;71.93
66119;DHT22;52912;48.564;9.302;2023-06-22T08:07:45;27.58;70.92
66119;DHT22;52912;48.564;9.302;2023-06-22T08:10:11;27.77;72.04
66119;DHT22;52912;48.564;9.302;2023-06-22T08:12:37;27.76;70.80
66119;DHT22;52912;48.564;9.302;2023-06-22T08:15:03;28.12;70.46
66119;DHT22;52912;48.564;9.302;2023-06-22T08:17:30;28.31;70.88
66119;DHT22;52912;48.564;9.302;2023-06-22T08:19:55;28.23;70.61
66119;DHT22;52912;48.564;9.302;2023-06-22T08:22:21;28.64;70.93
66119;DHT22;52912;48.564;9.302;2023-06-22T08:24:46;28.71;70.42
66119;DHT22;52912;48.564;9.302;2023-06-22T08:27:12;28.59;69.86
66119;DHT22;52912;48.564;9.302;2023-06-22T08:29:37;28.59;70.01
66119;DHT22;52912;48.564;9.302;2023-06-22T08:32:03;28.32;70.56
66119;DHT22;52912;48.564;9.302;2023-06-22T08:34:30;28.90;69.73
66119;DHT22;52912;48.564;9.302;2023-06-22T08:36:55;29.09;68.89
66119;DHT22;52912;48.564;9.302;2023-06-22T08:39:21;28.94;68.74
66119;DHT22;52912;48.564;9.302;2023-06-22T08:41:46;29.14;69.08
66119;DHT22;52912;48.564;9.302;2023-06-22T08:44:12;29.40;68.07
66119;DHT22;52912;48.564;9.302;2023-06-22T08:46:37;29.60;68.08
66119;DHT22;52912;48.564;9.302;2023-06-22T08:49:03;29.37;67.47
66119;DHT22;52912;48.564;9.302;2023-06-22T08:51:30;29.94;66.92
66119;DHT22;52912;48.564;9.302;2023-06-22T08:53:55;30.18;65.43
66119;DHT22;52912;48.564;9.302;2023-06-22T08:56:21;29.84;65.80
66119;DHT22;52912;48.564;9.302;2023-06-22T08:58:46;30.05;65.84
66119;DHT22;52912;48.564;9.302;2023-06-22T09:01:11;29.95;65.21
66119;DHT22;52912;48.564;9.302;2023-06-22T09:03:37;30.11;65.65
66119;DHT22;52912;48.564;9.302;2023-06-22T09:06:03;30.52;65.77
66119;DHT22;52912;48.564;9.302;2023-06-22T09:08:29;30.56;64.60
66119;DHT22;52912;48.564;9.302;2023-06-22T09:10:55;30.56;64.50
66119;DHT22;52912;48.564;9.302;2023-06-22T09:13:20;30.33;64.30
66119;DHT22;52912;48.564;9.302;2023-06-22T09:15:46;30.47;64.46
66119;DHT22;52912;48.564;9.302;2023-06-22T09:18:13;30.08;64.72
66119;DHT22;52912;48.564;9.302;2023-06-22T09:20:38;30.46;64.80
66119;DHT22;52912;48.564;9.302;2023-06-22T09:23:04;30.57;64.64
66119;DHT22;52912;48.564;9.302;2023-06-22T09:25:31;30.61;64.03
66119;DHT22;52912;48.564;9.302;2023-06-22T09:27:56;30.66;63.92
66119;DHT22;52912;48.564;9.302;2023-06-22T09:30:22;30.63;63.44
66119;DHT22;52912;48.564;9.302;2023-06-22T09:32:47;30.80;63.87
66119;DHT22;52912;48.564;9.302;2023-06-22T09:35:13;30.85;63.27
66119;DHT22;52912;48.564;9.302;2023-06-22T09:37:38;30.92;63.74
66119;DHT22;52912;48.564;9.302;2023-06-22T09:40:05;30.80;63.18
66119;DHT22;52912;48.564;9.302;2023-06-22T09:42:32;30.98;62.51
66119;DHT22;52912;48.564;9.302;2023-06-22T09:44:57;31.33;64.48
66119;DHT22;52912;48.564;9.302;2023-06-22T09:47:23;31.47;63.56
66119;DHT22;52912;48.564;9.302;2023-06-22T09:49:48;31.56;63.21
66119;DHT22;52912;48.564;9.302;2023-06-22T09:52:14;32.02;62.01
66119;DHT22;52912;48.564;9.302;2023-06-22T09:54:39;31.85;62.57
66119;DHT22;52912;48.564;9.302;2023-06-22T09:57:05;32.11;61.48
66119;DHT22;52912;48.564;9.302;2023-06-22T09:59:32;32.22;61.17
66119;DHT22;52912;48.564;9.302;2023-06-22T10:01:57;32.02;62.05
66119;DHT22;52912;48.564;9.302;2023-06-22T10:04:22;31.81;62.51
66119;DHT22;52912;48.564;9.302;2023-06-22T10:06:48;31.66;62.87
66119;DHT22;52912;48.564;9.302;2023-06-22T10:09:13;31.62;62.49
66119;DHT22;52912;48.564;9.302;2023-06-22T10:11:39;31.67;62.63
66119;DHT22;52912;48.564;9.302;2023-06-22T10:14:04;31.57;62.41
66119;DHT22;52912;48.564;9.302;2023-06-22T10:16:32;31.62;62.71
66119;DHT22;52912;48.564;9.302;2023-06-22T10:18:57;31.62;62.06
66119;DHT22;52912;48.564;9.302;2023-06-22T10:21:23;32.04;62.55
66119;DHT22;52912;48.564;9.302;2023-06-22T10:23:48;32.73;60.72
66119;DHT22;52912;48.564;9.302;2023-06-22T10:26:14;32.69;60.41
66119;DHT22;52912;48.564;9.302;2023-06-22T10:28:39;32.98;60.41
66119;DHT22;52912;48.564;9.302;2023-06-22T10:31:05;32.62;60.85
66119;DHT22;52912;48.564;9.302;2023-06-22T10:33:31;32.55;60.68
66119;DHT22;52912;48.564;9.302;2023-06-22T10:35:57;32.92;59.06
66119;DHT22;52912;48.564;9.302;2023-06-22T10:38:22;32.55;59.77
66119;DHT22;52912;48.564;9.302;2023-06-22T10:40:48;32.62;60.21
66119;DHT22;52912;48.564;9.302;2023-06-22T10:43:13;32.59;59.94
66119;DHT22;52912;48.564;9.302;2023-06-22T10:45:39;33.08;59.26
66119;DHT22;52912;48.564;9.302;2023-06-22T10:48:04;33.03;58.93
66119;DHT22;52912;48.564;9.302;2023-06-22T10:50:31;32.71;59.82
66119;DHT22;52912;48.564;9.302;2023-06-22T10:52:57;32.04;61.25
66119;DHT22;52912;48.564;9.302;2023-06-22T10:55:23;31.92;60.93
66119;DHT22;52912;48.564;9.302;2023-06-22T10:57:48;32.63;59.64
66119;DHT22;52912;48.564;9.302;2023-06-22T11:00:14;32.56;60.04
66119;DHT22;52912;48.564;9.302;2023-06-22T11:02:40;32.52;59.45
66119;DHT22;52912;48.564;9.302;2023-06-22T11:05:06;32.73;58.95
66119;DHT22;52912;48.564;9.302;2023-06-22T11:07:33;33.04;58.52
66119;DHT22;52912;48.564;9.302;2023-06-22T11:09:58;33.35;58.46
66119;DHT22;52912;48.564;9.302;2023-06-22T11:12:24;32.84;59.72
66119;DHT22;52912;48.564;9.302;2023-06-22T11:14:49;32.66;59.56
66119;DHT22;52912;48.564;9.302;2023-06-22T11:17:15;32.97;59.31
66119;DHT22;52912;48.564;9.302;2023-06-22T11:19:40;33.15;57.92
66119;DHT22;52912;48.564;9.302;2023-06-22T11:22:05;33.31;59.16
66119;DHT22;52912;48.564;9.302;2023-06-22T11:24:33;33.49;58.21
66119;DHT22;52912;48.564;9.302;2023-06-22T11:26:59;33.74;58.14
66119;DHT22;52912;48.564;9.302;2023-06-22T11:29:24;33.60;58.20
66119;DHT22;52912;48.564;9.302;2023-06-22T11:31:50;33.84;57.83
66119;DHT22;52912;48.564;9.302;2023-06-22T11:34:15;33.63;57.69
66119;DHT22;52912;48.564;9.302;2023-06-22T11:36:41;33.33;58.30
66119;DHT22;52912;48.564;9.302;2023-06-22T11:39:08;33.24;58.85
66119;DHT22;52912;48.564;9.302;2023-06-22T11:41:35;32.86;60.02
66119;DHT22;52912;48.564;9.302;2023-06-22T11:44:00;32.36;60.07
66119;DHT22;52912;48.564;9.302;2023-06-22T11:46:26;32.28;60.61
66119;DHT22;52912;48.564;9.302;2023-06-22T11:48:51;32.57;59.93
66119;DHT22;52912;48.564;9.302;2023-06-22T11:51:17;32.77;59.27
66119;DHT22;52912;48.564;9.302;2023-06-22T11:53:42;33.15;59.05
66119;DHT22;52912;48.564;9.302;2023-06-22T11:56:07;33.55;58.54
66119;DHT22;52912;48.564;9.302;2023-06-22T11:58:34;33.73;57.83
66119;DHT22;52912;48.564;9.302;2023-06-22T12:01:00;34.31;58.54
66119;DHT22;52912;48.564;9.302;2023-06-22T12:03:25;34.31;57.23
66119;DHT22;52912;48.564;9.302;2023-06-22T12:05:51;34.48;58.42
66119;DHT22;52912;48.564;9.302;2023-06-22T12:08:16;34.18;58.99
66119;DHT22;52912;48.564;9.302;2023-06-22T12:10:42;34.20;58.32
66119;DHT22;52912;48.564;9.302;2023-06-22T12:13:07;34.00;58.53
66119;DHT22;52912;48.564;9.302;2023-06-22T12:15:34;34.04;58.44
66119;DHT22;52912;48.564;9.302;2023-06-22T12:17:59;33.94;58.76
66119;DHT22;52912;48.564;9.302;2023-06-22T12:20:25;33.92;58.39
66119;DHT22;52912;48.564;9.302;2023-06-22T12:22:50;33.73;58.86
66119;DHT22;52912;48.564;9.302;2023-06-22T12:25:16;33.65;58.51
66119;DHT22;52912;48.564;9.302;2023-06-22T12:27:41;33.43;58.59
66119;DHT22;52912;48.564;9.302;2023-06-22T12:30:08;33.18;59.17
66119;DHT22;52912;48.564;9.302;2023-06-22T12:32:35;33.28;59.41
66119;DHT22;52912;48.564;9.302;2023-06-22T12:35:01;32.98;59.85
66119;DHT22;52912;48.564;9.302;2023-06-22T12:37:26;32.59;60.58
66119;DHT22;52912;48.564;9.302;2023-06-22T12:39:53;32.31;62.71
66119;DHT22;52912;48.564;9.302;2023-06-22T12:42:19;32.15;62.57
66119;DHT22;52912;48.564;9.302;2023-06-22T12:44:44;32.04;62.77
66119;DHT22;52912;48.564;9.302;2023-06-22T12:47:10;31.92;62.81
66119;DHT22;52912;48.564;9.302;2023-06-22T12:49:37;31.74;62.07
66119;DHT22;52912;48.564;9.302;2023-06-22T12:52:03;32.05;61.25
66119;DHT22;52912;48.564;9.302;2023-06-22T12:54:28;32.19;61.97
66119;DHT22;52912;48.564;9.302;2023-06-22T12:56:54;32.21;61.22
66119;DHT22;52912;48.564;9.302;2023-06-22T12:59:19;32.22;60.78
66119;DHT22;52912;48.564;9.302;2023-06-22T13:01:45;32.39;61.04
66119;DHT22;52912;48.564;9.302;2023-06-22T13:04:10;32.42;60.44
66119;DHT22;52912;48.564;9.302;2023-06-22T13:06:37;32.57;60.40
66119;DHT22;52912;48.564;9.302;2023-06-22T13:09:02;32.97;59.20
66119;DHT22;52912;48.564;9.302;2023-06-22T13:11:28;33.24;58.83
66119;DHT22;52912;48.564;9.302;2023-06-22T13:13:53;33.43;58.40
66119;DHT22;52912;48.564;9.302;2023-06-22T13:16:19;33.48;58.10
66119;DHT22;52912;48.564;9.302;2023-06-22T13:18:44;33.86;57.06
66119;DHT22;52912;48.564;9.302;2023-06-22T13:21:10;34.20;57.60
66119;DHT22;52912;48.564;9.302;2023-06-22T13:23:36;34.22;56.72
66119;DHT22;52912;48.564;9.302;2023-06-22T13:26:02;34.57;56.14
66119;DHT22;52912;48.564;9.302;2023-06-22T13:28:27;34.65;55.51
66119;DHT22;52912;48.564;9.302;2023-06-22T13:30:53;34.86;55.13
66119;DHT22;52912;48.564;9.302;2023-06-22T13:33:18;34.83;55.72
66119;DHT22;52912;48.564;9.302;2023-06-22T13:35:44;34.39;57.31
66119;DHT22;52912;48.564;9.302;2023-06-22T13:38:09;33.97;56.47
66119;DHT22;52912;48.564;9.302;2023-06-22T13:40:36;33.76;55.01
66119;DHT22;52912;48.564;9.302;2023-06-22T13:43:02;33.41;56.61
66119;DHT22;52912;48.564;9.302;2023-06-22T13:45:27;33.53;55.70
66119;DHT22;52912;48.564;9.302;2023-06-22T13:47:53;33.55;57.33
66119;DHT22;52912;48.564;9.302;2023-06-22T13:50:18;33.41;57.64
66119;DHT22;52912;48.564;9.302;2023-06-22T13:52:44;33.25;58.05
66119;DHT22;52912;48.564;9.302;2023-06-22T13:55:09;33.19;57.36
66119;DHT22;52912;48.564;9.302;2023-06-22T13:57:36;33.05;57.32
66119;DHT22;52912;48.564;9.302;2023-06-22T14:00:02;32.91;58.89
66119;DHT22;52912;48.564;9.302;2023-06-22T14:02:27;32.96;58.89
66119;DHT22;52912;48.564;9.302;2023-06-22T14:04:53;33.10;57.03
66119;DHT22;52912;48.564;9.302;2023-06-22T14:07:18;33.01;56.88
66119;DHT22;52912;48.564;9.302;2023-06-22T14:09:43;32.92;57.62
66119;DHT22;52912;48.564;9.302;2023-06-22T14:12:10;32.81;58.75
66119;DHT22;52912;48.564;9.302;2023-06-22T14:14:37;32.70;59.54
66119;DHT22;52912;48.564;9.302;2023-06-22T14:17:03;32.52;59.32
66119;DHT22;52912;48.564;9.302;2023-06-22T14:19:28;32.53;59.41
66119;DHT22;52912;48.564;9.302;2023-06-22T14:21:54;32.57;59.56
66119;DHT22;52912;48.564;9.302;2023-06-22T14:24:19;32.60;58.58
66119;DHT22;52912;48.564;9.302;2023-06-22T14:26:45;33.01;58.47
66119;DHT22;52912;48.564;9.302;2023-06-22T14:29:10;33.25;58.71
66119;DHT22;52912;48.564;9.302;2023-06-22T14:31:37;33.25;58.65
66119;DHT22;52912;48.564;9.302;2023-06-22T14:34:02;33.03;57.80
66119;DHT22;52912;48.564;9.302;2023-06-22T14:36:28;33.01;58.50
66119;DHT22;52912;48.564;9.302;2023-06-22T14:38:53;33.39;58.36
66119;DHT22;52912;48.564;9.302;2023-06-22T14:41:19;33.50;57.16
66119;DHT22;52912;48.564;9.302;2023-06-22T14:43:45;33.39;57.46
66119;DHT22;52912;48.564;9.302;2023-06-22T14:46:10;33.90;57.62
66119;DHT22;52912;48.564;9.302;2023-06-22T14:48:37;34.05;58.12
66119;DHT22;52912;48.564;9.302;2023-06-22T14:51:02;34.52;56.68
66119;DHT22;52912;48.564;9.302;2023-06-22T14:53:28;35.04;56.02
66119;DHT22;52912;48.564;9.302;2023-06-22T14:55:53;34.99;55.97
66119;DHT22;52912;48.564;9.302;2023-06-22T14:58:19;35.11;55.97
66119;DHT22;52912;48.564;9.302;2023-06-22T15:00:44;35.08;55.47
66119;DHT22;52912;48.564;9.302;2023-06-22T15:03:10;34.70;56.28
66119;DHT22;52912;48.564;9.302;2023-06-22T15:05:36;34.10;57.77
66119;DHT22;52912;48.564;9.302;2023-06-22T15:08:02;34.15;57.53
66119;DHT22;52912;48.564;9.302;2023-06-22T15:10:27;34.22;57.27
66119;DHT22;52912;48.564;9.302;2023-06-22T15:12:53;34.24;56.32
66119;DHT22;52912;48.564;9.302;2023-06-22T15:15:18;34.41;55.83
66119;DHT22;52912;48.564;9.302;2023-06-22T15:17:44;34.08;54.85
66119;DHT22;52912;48.564;9.302;2023-06-22T15:20:10;34.56;54.92